sensor_id;sensor_type;location;lat;lon;timestamp;pressure;altitude;pressure_sealevel;temperature;humidity
32789;BME280;19141;48.980;8.410;2023-04-25T04:22:33;99591.31;;;7.85;100.00
32789;BME280;19141;48.980;8.410;2023-04-25T04:25:04;99607.72;;;7.88;100.00
32789;BME280;19141;48.980;8.410;2023-04-25T04:27:52;99603.41;;;7.87;100.00
32789;BME280;19141;48.980;8.410;2023-04-25T04:30:43;99600.94;;;7.86;100.00
32789;BME280;19141;48.980;8.410;2023-04-25T04:33:11;99591.50;;;7.83;100.00
32789;BME280;19141;48.980;8.410;2023-04-25T04:35:41;99600.09;;;7.85;100.00
32789;BME280;19141;48.980;8.410;2023-04-25T04:38:07;99603.59;;;7.86;100.00
32789;BME280;19141;48.980;8.410;2023-04-25T04:40:34;99607.72;;;7.88;100.00
32789;BME280;19141;48.980;8.410;2023-04-25T04:43:09;99604.09;;;7.89;100.00
32789;BME280;19141;48.980;8.410;2023-04-25T04:45:55;99604.22;;;7.88;100.00
32789;BME280;19141;48.980;8.410;2023-04-25T04:48:50;99606.06;;;7.87;100.00
32789;BME280;19141;48.980;8.410;2023-04-25T04:51:29;99609.38;;;7.89;100.00
32789;BME280;19141;48.980;8.410;2023-04-25T04:54:06;99614.00;;;7.96;100.00
32789;BME280;19141;48.980;8.410;2023-04-25T04:56:58;99621.44;;;8.00;100.00
32789;BME280;19141;48.980;8.410;2023-04-25T04:59:46;99618.91;;;8.07;100.00
32789;BME280;19141;48.980;8.410;2023-04-25T05:02:47;99577.94;;;7.78;100.00
32789;BME280;19141;48.980;8.410;2023-04-25T05:05:37;99617.91;;;8.08;100.00
32789;BME280;19141;48.980;8.410;2023-04-25T05:08:30;99612.13;;;8.04;100.00
32789;BME280;19141;48.980;8.410;2023-04-25T05:11:13;99599.38;;;8.00;100.00
32789;BME280;19141;48.980;8.410;2023-04-25T05:13:54;99613.59;;;8.15;100.00
32789;BME280;19141;48.980;8.410;2023-04-25T05:16:39;99609.44;;;8.12;100.00
32789;BME280;19141;48.980;8.410;2023-04-25T05:19:23;99615.56;;;8.13;100.00
32789;BME280;19141;48.980;8.410;2023-04-25T05:22:07;99614.06;;;8.19;100.00
32789;BME280;19141;48.980;8.410;2023-04-25T05:24:52;99614.56;;;8.22;100.00
32789;BME280;19141;48.980;8.410;2023-04-25T05:27:49;99619.88;;;8.22;100.00
32789;BME280;19141;48.980;8.410;2023-04-25T05:30:34;99619.81;;;8.30;100.00
32789;BME280;19141;48.980;8.410;2023-04-25T05:33:07;99617.50;;;8.35;100.00
32789;BME280;19141;48.980;8.410;2023-04-25T05:35:33;99618.78;;;8.39;100.00
32789;BME280;19141;48.980;8.410;2023-04-25T05:37:59;99616.13;;;8.48;100.00
32789;BME280;19141;48.980;8.410;2023-04-25T05:40:44;99616.25;;;8.54;100.00
32789;BME280;19141;48.980;8.410;2023-04-25T05:43:15;99621.81;;;8.59;100.00
32789;BME280;19141;48.980;8.410;2023-04-25T05:45:50;99628.91;;;8.67;100.00
32789;BME280;19141;48.980;8.410;2023-04-25T05:48:35;99635.84;;;8.76;100.00
32789;BME280;19141;48.980;8.410;2023-04-25T05:51:24;99633.13;;;8.84;100.00
32789;BME280;19141;48.980;8.410;2023-04-25T05:54:04;99630.13;;;8.87;100.00
32789;BME280;19141;48.980;8.410;2023-04-25T05:56:31;99635.72;;;8.92;100.00
32789;BME280;19141;48.980;8.410;2023-04-25T05:58:56;99636.72;;;8.91;100.00
32789;BME280;19141;48.980;8.410;2023-04-25T06:01:22;99648.34;;;8.90;100.00
32789;BME280;19141;48.980;8.410;2023-04-25T06:03:48;99645.69;;;8.90;100.00
32789;BME280;19141;48.980;8.410;2023-04-25T06:06:16;99649.34;;;8.89;100.00
32789;BME280;19141;48.980;8.410;2023-04-25T06:08:42;99656.31;;;8.90;100.00
32789;BME280;19141;48.980;8.410;2023-04-25T06:11:10;99647.72;;;8.88;100.00
32789;BME280;19141;48.980;8.410;2023-04-25T06:13:35;99654.06;;;8.79;100.00
32789;BME280;19141;48.980;8.410;2023-04-25T06:16:01;99655.25;;;8.77;100.00
32789;BME280;19141;48.980;8.410;2023-04-25T06:18:26;99650.47;;;8.72;100.00
32789;BME280;19141;48.980;8.410;2023-04-25T06:20:52;99656.13;;;8.69;100.00
32789;BME280;19141;48.980;8.410;2023-04-25T06:23:18;99662.44;;;8.68;100.00
32789;BME280;19141;48.980;8.410;2023-04-25T06:25:52;99655.78;;;8.72;100.00
32789;BME280;19141;48.980;8.410;2023-04-25T06:28:18;99665.38;;;8.73;100.00
32789;BME280;19141;48.980;8.410;2023-04-25T06:30:44;99656.13;;;8.69;100.00
32789;BME280;19141;48.980;8.410;2023-04-25T06:33:13;99663.09;;;8.70;100.00
32789;BME280;19141;48.980;8.410;2023-04-25T06:35:39;99663.09;;;8.70;100.00
32789;BME280;19141;48.980;8.410;2023-04-25T06:38:08;99671.38;;;8.75;100.00
32789;BME280;19141;48.980;8.410;2023-04-25T06:40:35;99667.75;;;8.68;100.00
32789;BME280;19141;48.980;8.410;2023-04-25T06:43:01;99672.06;;;8.69;100.00
32789;BME280;19141;48.980;8.410;2023-04-25T06:45:56;99669.59;;;8.67;100.00
32789;BME280;19141;48.980;8.410;2023-04-25T06:48:24;99672.06;;;8.69;100.00
32789;BME280;19141;48.980;8.410;2023-04-25T06:50:51;99671.25;;;8.68;100.00
32789;BME280;19141;48.980;8.410;2023-04-25T06:53:17;99672.25;;;8.67;100.00
32789;BME280;19141;48.980;8.410;2023-04-25T06:55:46;99680.50;;;8.73;100.00
32789;BME280;19141;48.980;8.410;2023-04-25T06:58:17;99674.84;;;8.76;100.00
32789;BME280;19141;48.980;8.410;2023-04-25T07:01:12;99671.81;;;8.79;100.00
32789;BME280;19141;48.980;8.410;2023-04-25T07:03:38;99674.72;;;8.69;100.00
32789;BME280;19141;48.980;8.410;2023-04-25T07:06:08;99670.09;;;8.63;100.00
32789;BME280;19141;48.980;8.410;2023-04-25T07:08:33;99678.53;;;8.66;100.00
32789;BME280;19141;48.980;8.410;2023-04-25T07:10:59;99679.03;;;8.70;100.00
32789;BME280;19141;48.980;8.410;2023-04-25T07:13:25;99682.88;;;8.67;100.00
32789;BME280;19141;48.980;8.410;2023-04-25T07:15:50;99675.06;;;8.66;100.00
32789;BME280;19141;48.980;8.410;2023-04-25T07:18:18;99680.03;;;8.69;100.00
32789;BME280;19141;48.980;8.410;2023-04-25T07:20:43;99679.66;;;8.72;100.00
32789;BME280;19141;48.980;8.410;2023-04-25T07:23:10;99688.44;;;8.81;100.00
32789;BME280;19141;48.980;8.410;2023-04-25T07:25:35;99688.59;;;8.79;100.00
32789;BME280;19141;48.980;8.410;2023-04-25T07:28:01;99690.59;;;8.77;100.00
32789;BME280;19141;48.980;8.410;2023-04-25T07:30:26;99693.44;;;8.76;100.00
32789;BME280;19141;48.980;8.410;2023-04-25T07:32:53;99697.25;;;8.73;100.00
32789;BME280;19141;48.980;8.410;2023-04-25T07:35:19;99705.06;;;8.75;100.00
32789;BME280;19141;48.980;8.410;2023-04-25T07:37:44;99702.44;;;8.66;100.00
32789;BME280;19141;48.980;8.410;2023-04-25T07:40:13;99707.03;;;8.73;100.00
32789;BME280;19141;48.980;8.410;2023-04-25T07:42:45;99699.25;;;8.71;100.00
32789;BME280;19141;48.980;8.410;2023-04-25T07:45:12;99703.88;;;8.77;100.00
32789;BME280;19141;48.980;8.410;2023-04-25T07:47:39;99704.69;;;8.78;100.00
32789;BME280;19141;48.980;8.410;2023-04-25T07:50:06;99710.50;;;8.81;100.00
32789;BME280;19141;48.980;8.410;2023-04-25T07:52:32;99716.47;;;8.83;100.00
32789;BME280;19141;48.980;8.410;2023-04-25T07:55:16;99720.75;;;8.84;100.00
32789;BME280;19141;48.980;8.410;2023-04-25T07:57:58;99720.13;;;8.82;100.00
32789;BME280;19141;48.980;8.410;2023-04-25T08:00:28;99730.25;;;8.79;100.00
32789;BME280;19141;48.980;8.410;2023-04-25T08:03:09;99719.50;;;8.72;100.00
32789;BME280;19141;48.980;8.410;2023-04-25T08:05:35;99735.75;;;8.77;100.00
32789;BME280;19141;48.980;8.410;2023-04-25T08:08:03;99742.38;;;8.73;100.00
32789;BME280;19141;48.980;8.410;2023-04-25T08:10:32;99750.91;;;8.68;100.00
32789;BME280;19141;48.980;8.410;2023-04-25T08:12:57;99748.00;;;8.78;100.00
32789;BME280;19141;48.980;8.410;2023-04-25T08:15:23;99750.72;;;8.70;100.00
32789;BME280;19141;48.980;8.410;2023-04-25T08:17:48;99762.03;;;8.64;100.00
32789;BME280;19141;48.980;8.410;2023-04-25T08:20:14;99761.81;;;8.74;100.00
32789;BME280;19141;48.980;8.410;2023-04-25T08:22:40;99756.50;;;8.74;100.00
32789;BME280;19141;48.980;8.410;2023-04-25T08:25:25;99761.28;;;8.78;100.00
32789;BME280;19141;48.980;8.410;2023-04-25T08:27:51;99769.22;;;8.86;100.00
32789;BME280;19141;48.980;8.410;2023-04-25T08:30:19;99772.72;;;8.87;100.00
32789;BME280;19141;48.980;8.410;2023-04-25T08:32:46;99775.38;;;8.87;100.00
32789;BME280;19141;48.980;8.410;2023-04-25T08:35:44;99783.34;;;8.87;100.00
32789;BME280;19141;48.980;8.410;2023-04-25T08:38:10;99784.69;;;8.83;100.00
32789;BME280;19141;48.980;8.410;2023-04-25T08:40:38;99780.19;;;8.83;100.00
32789;BME280;19141;48.980;8.410;2023-04-25T08:43:09;99791.31;;;8.87;100.00
32789;BME280;19141;48.980;8.410;2023-04-25T08:45:40;99791.28;;;8.95;100.00
32789;BME280;19141;48.980;8.410;2023-04-25T08:48:14;99801.03;;;9.03;100.00
32789;BME280;19141;48.980;8.410;2023-04-25T08:50:45;99794.69;;;9.04;100.00
32789;BME280;19141;48.980;8.410;2023-04-25T08:53:12;99799.97;;;9.12;100.00
32789;BME280;19141;48.980;8.410;2023-04-25T08:55:42;99797.31;;;9.12;100.00
32789;BME280;19141;48.980;8.410;2023-04-25T08:58:10;99816.22;;;9.17;100.00
32789;BME280;19141;48.980;8.410;2023-04-25T09:00:36;99812.09;;;9.14;100.00
32789;BME280;19141;48.980;8.410;2023-04-25T09:03:02;99808.75;;;9.12;100.00
32789;BME280;19141;48.980;8.410;2023-04-25T09:05:34;99817.91;;;9.10;100.00
32789;BME280;19141;48.980;8.410;2023-04-25T09:08:01;99817.03;;;9.17;100.00
32789;BME280;19141;48.980;8.410;2023-04-25T09:10:27;99826.03;;;9.16;100.00
32789;BME280;19141;48.980;8.410;2023-04-25T09:13:25;99829.88;;;9.14;100.00
32789;BME280;19141;48.980;8.410;2023-04-25T09:16:14;99823.94;;;9.04;100.00
32789;BME280;19141;48.980;8.410;2023-04-25T09:19:21;99841.50;;;9.13;100.00
32789;BME280;19141;48.980;8.410;2023-04-25T09:21:49;99838.16;;;9.11;100.00
32789;BME280;19141;48.980;8.410;2023-04-25T09:24:14;99843.03;;;9.07;100.00
32789;BME280;19141;48.980;8.410;2023-04-25T09:26:40;99855.16;;;9.02;100.00
32789;BME280;19141;48.980;8.410;2023-04-25T09:29:06;99861.50;;;8.92;100.00
32789;BME280;19141;48.980;8.410;2023-04-25T09:31:33;99857.69;;;8.95;100.00
32789;BME280;19141;48.980;8.410;2023-04-25T09:34:02;99870.28;;;8.93;100.00
32789;BME280;19141;48.980;8.410;2023-04-25T09:36:35;99875.44;;;8.94;100.00
32789;BME280;19141;48.980;8.410;2023-04-25T09:39:29;99879.94;;;8.94;100.00
32789;BME280;19141;48.980;8.410;2023-04-25T09:42:05;99883.56;;;8.93;100.00
32789;BME280;19141;48.980;8.410;2023-04-25T09:44:31;99892.06;;;8.88;100.00
32789;BME280;19141;48.980;8.410;2023-04-25T09:46:57;99898.22;;;8.89;100.00
32789;BME280;19141;48.980;8.410;2023-04-25T09:49:26;99898.69;;;8.92;100.00
32789;BME280;19141;48.980;8.410;2023-04-25T09:52:10;99917.44;;;8.91;100.00
32789;BME280;19141;48.980;8.410;2023-04-25T09:54:57;99923.94;;;8.88;100.00
32789;BME280;19141;48.980;8.410;2023-04-25T09:57:29;99924.47;;;8.27;100.00
32789;BME280;19141;48.980;8.410;2023-04-25T09:59:56;99928.16;;;8.50;100.00
32789;BME280;19141;48.980;8.410;2023-04-25T10:02:24;99935.78;;;8.45;100.00
32789;BME280;19141;48.980;8.410;2023-04-25T10:04:55;99930.50;;;8.37;100.00
32789;BME280;19141;48.980;8.410;2023-04-25T10:07:27;99922.31;;;8.14;100.00
32789;BME280;19141;48.980;8.410;2023-04-25T10:10:02;99928.78;;;8.20;100.00
32789;BME280;19141;48.980;8.410;2023-04-25T10:12:28;99934.94;;;8.28;100.00
32789;BME280;19141;48.980;8.410;2023-04-25T10:14:54;99932.94;;;8.30;100.00
32789;BME280;19141;48.980;8.410;2023-04-25T10:17:20;99931.97;;;8.23;100.00
32789;BME280;19141;48.980;8.410;2023-04-25T10:19:47;99921.84;;;8.19;100.00
32789;BME280;19141;48.980;8.410;2023-04-25T10:22:34;99938.59;;;8.11;100.00
32789;BME280;19141;48.980;8.410;2023-04-25T10:25:01;99938.09;;;8.15;100.00
32789;BME280;19141;48.980;8.410;2023-04-25T10:27:29;99942.88;;;8.12;100.00
32789;BME280;19141;48.980;8.410;2023-04-25T10:32:30;99945.53;;;7.96;100.00
32789;BME280;19141;48.980;8.410;2023-04-25T10:34:57;99947.84;;;7.99;100.00
32789;BME280;19141;48.980;8.410;2023-04-25T10:37:23;99945.53;;;8.04;100.00
32789;BME280;19141;48.980;8.410;2023-04-25T10:39:49;99947.50;;;7.94;100.00
32789;BME280;19141;48.980;8.410;2023-04-25T10:42:14;99952.16;;;8.00;100.00
32789;BME280;19141;48.980;8.410;2023-04-25T10:44:40;99950.97;;;7.94;100.00
32789;BME280;19141;48.980;8.410;2023-04-25T10:47:07;99947.31;;;7.87;100.00
32789;BME280;19141;48.980;8.410;2023-04-25T10:49:35;99957.91;;;7.71;100.00
32789;BME280;19141;48.980;8.410;2023-04-25T10:52:30;99965.88;;;7.71;100.00
32789;BME280;19141;48.980;8.410;2023-04-25T10:54:58;99966.16;;;7.59;100.00
32789;BME280;19141;48.980;8.410;2023-04-25T11:02:48;99968.84;;;7.76;100.00
32789;BME280;19141;48.980;8.410;2023-04-25T11:05:23;99971.34;;;7.77;100.00
32789;BME280;19141;48.980;8.410;2023-04-25T11:07:53;99972.84;;;7.80;100.00
32789;BME280;19141;48.980;8.410;2023-04-25T11:10:31;99971.38;;;7.85;100.00
32789;BME280;19141;48.980;8.410;2023-04-25T11:12:57;99975.38;;;7.89;100.00
32789;BME280;19141;48.980;8.410;2023-04-25T11:15:23;99971.00;;;7.80;100.00
32789;BME280;19141;48.980;8.410;2023-04-25T11:17:51;99966.22;;;7.84;100.00
32789;BME280;19141;48.980;8.410;2023-04-25T11:20:17;99978.00;;;7.89;100.00
32789;BME280;19141;48.980;8.410;2023-04-25T11:22:44;99978.97;;;7.88;100.00
32789;BME280;19141;48.980;8.410;2023-04-25T11:25:11;99986.28;;;7.86;100.00
32789;BME280;19141;48.980;8.410;2023-04-25T11:27:38;99980.78;;;7.80;100.00
32789;BME280;19141;48.980;8.410;2023-04-25T11:30:13;99972.91;;;7.54;100.00
32789;BME280;19141;48.980;8.410;2023-04-25T11:32:40;99982.56;;;7.63;100.00
32789;BME280;19141;48.980;8.410;2023-04-25T11:35:07;99979.94;;;7.71;100.00
32789;BME280;19141;48.980;8.410;2023-04-25T11:37:32;99985.25;;;7.79;100.00
32789;BME280;19141;48.980;8.410;2023-04-25T11:39:59;99991.75;;;7.85;100.00
32789;BME280;19141;48.980;8.410;2023-04-25T11:42:25;99998.06;;;7.84;100.00
32789;BME280;19141;48.980;8.410;2023-04-25T11:44:51;100004.50;;;7.81;100.00
32789;BME280;19141;48.980;8.410;2023-04-25T11:47:16;100002.84;;;7.80;100.00
32789;BME280;19141;48.980;8.410;2023-04-25T11:49:42;100004.47;;;7.73;100.00
32789;BME280;19141;48.980;8.410;2023-04-25T11:52:07;100002.34;;;7.85;100.00
32789;BME280;19141;48.980;8.410;2023-04-25T11:54:37;100005.19;;;7.83;100.00
32789;BME280;19141;48.980;8.410;2023-04-25T11:57:04;100000.06;;;7.90;100.00
32789;BME280;19141;48.980;8.410;2023-04-25T11:59:29;100016.81;;;7.99;100.00
32789;BME280;19141;48.980;8.410;2023-04-25T12:01:55;100018.47;;;8.08;100.00
32789;BME280;19141;48.980;8.410;2023-04-25T12:04:24;100021.13;;;8.08;100.00
32789;BME280;19141;48.980;8.410;2023-04-25T12:06:53;100023.78;;;8.08;100.00
32789;BME280;19141;48.980;8.410;2023-04-25T12:09:21;100020.81;;;8.11;100.00
32789;BME280;19141;48.980;8.410;2023-04-25T12:11:53;100028.63;;;8.12;100.00
32789;BME280;19141;48.980;8.410;2023-04-25T12:14:23;100019.81;;;8.04;100.00
32789;BME280;19141;48.980;8.410;2023-04-25T12:16:50;100027.59;;;8.05;100.00
32789;BME280;19141;48.980;8.410;2023-04-25T12:19:17;100023.78;;;8.00;100.00
32789;BME280;19141;48.980;8.410;2023-04-25T12:21:43;100013.81;;;8.02;100.00
32789;BME280;19141;48.980;8.410;2023-04-25T12:29:23;100016.03;;;8.23;100.00
32789;BME280;19141;48.980;8.410;2023-04-25T12:31:50;100012.28;;;8.41;100.00
32789;BME280;19141;48.980;8.410;2023-04-25T12:34:17;100010.94;;;8.46;100.00
32789;BME280;19141;48.980;8.410;2023-04-25T12:36:43;100021.25;;;8.81;100.00
32789;BME280;19141;48.980;8.410;2023-04-25T12:39:08;100020.88;;;8.92;100.00
32789;BME280;19141;48.980;8.410;2023-04-25T12:41:41;100018.91;;;8.78;100.00
32789;BME280;19141;48.980;8.410;2023-04-25T12:44:06;100023.38;;;8.94;100.00
32789;BME280;19141;48.980;8.410;2023-04-25T12:46:32;100012.09;;;8.84;100.00
32789;BME280;19141;48.980;8.410;2023-04-25T12:48:57;100027.88;;;8.85;100.00
32789;BME280;19141;48.980;8.410;2023-04-25T12:51:23;100028.19;;;8.90;100.00
32789;BME280;19141;48.980;8.410;2023-04-25T12:53:50;100031.84;;;8.89;100.00
32789;BME280;19141;48.980;8.410;2023-04-25T12:56:16;100037.31;;;8.96;100.00
32789;BME280;19141;48.980;8.410;2023-04-25T12:58:41;100030.34;;;8.79;100.00
32789;BME280;19141;48.980;8.410;2023-04-25T13:01:09;100029.88;;;8.83;100.00
32789;BME280;19141;48.980;8.410;2023-04-25T13:03:34;100031.34;;;8.94;100.00
32789;BME280;19141;48.980;8.410;2023-04-25T13:06:00;100033.50;;;8.90;100.00
32789;BME280;19141;48.980;8.410;2023-04-25T13:08:25;100032.19;;;8.94;100.00
32789;BME280;19141;48.980;8.410;2023-04-25T13:10:51;100032.84;;;8.96;100.00
32789;BME280;19141;48.980;8.410;2023-04-25T13:13:17;100024.72;;;8.82;100.00
32789;BME280;19141;48.980;8.410;2023-04-25T13:15:42;100028.53;;;8.79;100.00
32789;BME280;19141;48.980;8.410;2023-04-25T13:18:08;100028.69;;;8.78;100.00
32789;BME280;19141;48.980;8.410;2023-04-25T13:20:33;100033.34;;;8.92;100.00
32789;BME280;19141;48.980;8.410;2023-04-25T13:22:59;100033.31;;;9.08;100.00
32789;BME280;19141;48.980;8.410;2023-04-25T13:25:24;100029.63;;;9.34;100.00
32789;BME280;19141;48.980;8.410;2023-04-25T13:27:50;100028.03;;;9.56;100.00
32789;BME280;19141;48.980;8.410;2023-04-25T13:30:16;100031.72;;;9.55;100.00
32789;BME280;19141;48.980;8.410;2023-04-25T13:32:41;100035.97;;;9.64;100.00
32789;BME280;19141;48.980;8.410;2023-04-25T13:35:09;100003.09;;;9.57;100.00
32789;BME280;19141;48.980;8.410;2023-04-25T13:37:34;100033.03;;;9.90;100.00
32789;BME280;19141;48.980;8.410;2023-04-25T13:40:04;100043.38;;;10.16;100.00
32789;BME280;19141;48.980;8.410;2023-04-25T13:42:31;100035.88;;;10.27;99.27
32789;BME280;19141;48.980;8.410;2023-04-25T13:44:56;100033.88;;;10.52;100.00
32789;BME280;19141;48.980;8.410;2023-04-25T13:47:22;100037.84;;;10.56;94.66
32789;BME280;19141;48.980;8.410;2023-04-25T13:49:48;100037.78;;;10.65;97.95
32789;BME280;19141;48.980;8.410;2023-04-25T13:52:14;100027.91;;;10.50;94.05
32789;BME280;19141;48.980;8.410;2023-04-25T13:54:40;100019.34;;;10.55;96.07
32789;BME280;19141;48.980;8.410;2023-04-25T13:57:05;100022.44;;;11.04;100.00
32789;BME280;19141;48.980;8.410;2023-04-25T13:59:32;100026.66;;;10.99;91.24
32789;BME280;19141;48.980;8.410;2023-04-25T14:01:57;100027.97;;;10.80;86.30
32789;BME280;19141;48.980;8.410;2023-04-25T14:04:23;100033.22;;;10.88;84.93
32789;BME280;19141;48.980;8.410;2023-04-25T14:06:48;100028.91;;;10.87;86.60
32789;BME280;19141;48.980;8.410;2023-04-25T14:09:14;100034.25;;;11.02;87.18
32789;BME280;19141;48.980;8.410;2023-04-25T14:11:40;100026.44;;;11.00;88.20
32789;BME280;19141;48.980;8.410;2023-04-25T14:14:05;100032.97;;;10.83;77.98
32789;BME280;19141;48.980;8.410;2023-04-25T14:16:31;100031.44;;;11.03;81.80
32789;BME280;19141;48.980;8.410;2023-04-25T14:18:59;100029.69;;;11.10;83.62
32789;BME280;19141;48.980;8.410;2023-04-25T14:21:25;100026.75;;;11.05;78.06
32789;BME280;19141;48.980;8.410;2023-04-25T14:23:52;100020.28;;;10.85;79.27
32789;BME280;19141;48.980;8.410;2023-04-25T14:26:17;100029.22;;;11.07;80.48
32789;BME280;19141;48.980;8.410;2023-04-25T14:28:43;100027.22;;;11.38;79.78
32789;BME280;19141;48.980;8.410;2023-04-25T14:31:08;100028.34;;;11.29;76.15
32789;BME280;19141;48.980;8.410;2023-04-25T14:33:34;100022.38;;;11.57;77.97
32789;BME280;19141;48.980;8.410;2023-04-25T14:35:59;100031.72;;;11.53;78.48
32789;BME280;19141;48.980;8.410;2023-04-25T14:38:25;100029.44;;;11.64;82.17
32789;BME280;19141;48.980;8.410;2023-04-25T14:40:51;100027.03;;;11.84;81.66
32789;BME280;19141;48.980;8.410;2023-04-25T14:43:16;100030.00;;;11.75;84.11
32789;BME280;19141;48.980;8.410;2023-04-25T14:45:42;100027.25;;;11.83;79.55
32789;BME280;19141;48.980;8.410;2023-04-25T14:48:07;100030.56;;;11.55;80.07
32789;BME280;19141;48.980;8.410;2023-04-25T14:50:33;100027.06;;;11.55;78.66
32789;BME280;19141;48.980;8.410;2023-04-25T14:52:58;100032.84;;;11.58;81.54
32789;BME280;19141;48.980;8.410;2023-04-25T14:55:26;100033.31;;;11.62;84.02
32789;BME280;19141;48.980;8.410;2023-04-25T14:57:53;100035.59;;;11.50;79.79
32789;BME280;19141;48.980;8.410;2023-04-25T15:00:19;100036.06;;;11.39;75.87
32789;BME280;19141;48.980;8.410;2023-04-25T15:02:46;100033.69;;;11.29;82.14
32789;BME280;19141;48.980;8.410;2023-04-25T15:05:12;100030.63;;;11.32;83.36
32789;BME280;19141;48.980;8.410;2023-04-25T15:07:39;100038.19;;;11.29;86.25
32789;BME280;19141;48.980;8.410;2023-04-25T15:10:08;100041.41;;;11.39;88.47
32789;BME280;19141;48.980;8.410;2023-04-25T15:12:39;100039.19;;;11.43;83.68
32789;BME280;19141;48.980;8.410;2023-04-25T15:15:06;100045.91;;;11.53;85.25
32789;BME280;19141;48.980;8.410;2023-04-25T15:17:42;100042.31;;;11.46;85.16
32789;BME280;19141;48.980;8.410;2023-04-25T15:20:10;100049.59;;;11.37;88.87
32789;BME280;19141;48.980;8.410;2023-04-25T15:22:36;100051.25;;;11.38;88.22
32789;BME280;19141;48.980;8.410;2023-04-25T15:25:03;100050.94;;;11.33;87.61
32789;BME280;19141;48.980;8.410;2023-04-25T15:27:29;100054.53;;;11.26;88.04
32789;BME280;19141;48.980;8.410;2023-04-25T15:29:54;100056.56;;;11.24;92.53
32789;BME280;19141;48.980;8.410;2023-04-25T15:32:20;100057.09;;;11.19;92.61
32789;BME280;19141;48.980;8.410;2023-04-25T15:34:46;100060.03;;;11.09;94.75
32789;BME280;19141;48.980;8.410;2023-04-25T15:37:11;100056.25;;;11.04;96.40
32789;BME280;19141;48.980;8.410;2023-04-25T15:39:37;100070.13;;;10.99;100.00
32789;BME280;19141;48.980;8.410;2023-04-25T15:42:02;100070.81;;;10.93;96.68
32789;BME280;19141;48.980;8.410;2023-04-25T15:44:28;100067.66;;;10.75;98.77
32789;BME280;19141;48.980;8.410;2023-04-25T15:46:53;100074.56;;;10.61;98.38
32789;BME280;19141;48.980;8.410;2023-04-25T15:49:19;100080.50;;;10.48;100.00
32789;BME280;19141;48.980;8.410;2023-04-25T15:51:46;100079.53;;;10.41;100.00
32789;BME280;19141;48.980;8.410;2023-04-25T15:54:12;100085.25;;;10.30;100.00
32789;BME280;19141;48.980;8.410;2023-04-25T15:56:37;100084.91;;;10.33;100.00
32789;BME280;19141;48.980;8.410;2023-04-25T15:59:03;100090.44;;;10.23;100.00
32789;BME280;19141;48.980;8.410;2023-04-25T16:01:29;100095.78;;;10.23;100.00
32789;BME280;19141;48.980;8.410;2023-04-25T16:03:56;100098.13;;;10.10;100.00
32789;BME280;19141;48.980;8.410;2023-04-25T16:06:25;100107.03;;;9.94;100.00
32789;BME280;19141;48.980;8.410;2023-04-25T16:08:51;100102.41;;;9.88;100.00
32789;BME280;19141;48.980;8.410;2023-04-25T16:11:18;100115.84;;;9.95;100.00
32789;BME280;19141;48.980;8.410;2023-04-25T16:13:43;100111.41;;;9.79;100.00
32789;BME280;19141;48.980;8.410;2023-04-25T16:16:09;100108.63;;;9.72;100.00
32789;BME280;19141;48.980;8.410;2023-04-25T16:18:35;100113.09;;;9.64;100.00
32789;BME280;19141;48.980;8.410;2023-04-25T16:21:00;100114.97;;;9.55;100.00
32789;BME280;19141;48.980;8.410;2023-04-25T16:23:25;100118.50;;;9.39;100.00
32789;BME280;19141;48.980;8.410;2023-04-25T16:25:51;100126.47;;;9.31;100.00
32789;BME280;19141;48.980;8.410;2023-04-25T16:28:17;100126.16;;;9.34;100.00
32789;BME280;19141;48.980;8.410;2023-04-25T16:30:42;100128.47;;;9.29;99.63
32789;BME280;19141;48.980;8.410;2023-04-25T16:33:07;100135.78;;;9.03;100.00
32789;BME280;19141;48.980;8.410;2023-04-25T16:35:33;100139.09;;;8.96;100.00
32789;BME280;19141;48.980;8.410;2023-04-25T16:37:59;100144.72;;;8.69;100.00
32789;BME280;19141;48.980;8.410;2023-04-25T16:40:25;100148.03;;;8.71;100.00
32789;BME280;19141;48.980;8.410;2023-04-25T16:42:51;100141.56;;;8.65;100.00
32789;BME280;19141;48.980;8.410;2023-04-25T16:45:16;100135.09;;;8.84;100.00
32789;BME280;19141;48.980;8.410;2023-04-25T16:47:44;100134.63;;;8.89;100.00
32789;BME280;19141;48.980;8.410;2023-04-25T16:50:12;100128.13;;;8.91;100.00
32789;BME280;19141;48.980;8.410;2023-04-25T16:52:38;100133.63;;;8.82;100.00
32789;BME280;19141;48.980;8.410;2023-04-25T16:55:03;100131.78;;;8.98;100.00
32789;BME280;19141;48.980;8.410;2023-04-25T16:57:29;100129.66;;;9.02;100.00
32789;BME280;19141;48.980;8.410;2023-04-25T16:59:54;100127.16;;;9.09;100.00
32789;BME280;19141;48.980;8.410;2023-04-25T17:02:20;100125.16;;;9.19;100.00
32789;BME280;19141;48.980;8.410;2023-04-25T17:04:46;100126.31;;;9.16;100.00
32789;BME280;19141;48.980;8.410;2023-04-25T17:07:11;100131.31;;;8.95;99.73
32789;BME280;19141;48.980;8.410;2023-04-25T17:09:37;100128.97;;;8.92;100.00
32789;BME280;19141;48.980;8.410;2023-04-25T17:12:03;100127.47;;;8.89;100.00
32789;BME280;19141;48.980;8.410;2023-04-25T17:14:29;100135.75;;;8.62;100.00
32789;BME280;19141;48.980;8.410;2023-04-25T17:16:56;100145.03;;;8.58;100.00
32789;BME280;19141;48.980;8.410;2023-04-25T17:19:21;100139.06;;;8.64;100.00
32789;BME280;19141;48.980;8.410;2023-04-25T17:21:47;100135.59;;;8.63;100.00
32789;BME280;19141;48.980;8.410;2023-04-25T17:24:12;100137.06;;;8.50;100.00
32789;BME280;19141;48.980;8.410;2023-04-25T17:26:40;100136.19;;;8.41;100.00
32789;BME280;19141;48.980;8.410;2023-04-25T17:29:05;100144.59;;;8.28;100.00
32789;BME280;19141;48.980;8.410;2023-04-25T17:31:30;100144.59;;;8.28;100.00
32789;BME280;19141;48.980;8.410;2023-04-25T17:33:56;100147.09;;;8.30;100.00
32789;BME280;19141;48.980;8.410;2023-04-25T17:36:22;100135.44;;;8.23;100.00
32789;BME280;19141;48.980;8.410;2023-04-25T17:38:47;100144.53;;;8.12;100.00
32789;BME280;19141;48.980;8.410;2023-04-25T17:41:13;100134.91;;;8.11;100.00